Time;durP1;ratioP1;P1;durP2;ratioP2;P2;SDS_P1;SDS_P2;PMS_P1;PMS_P2;Temp;Humidity;BMP_temperature;BMP_pressure;BME280_temperature;BME280_humidity;BME280_pressure;Samples;Min_cycle;Max_cycle;Signal;HPM_P1;HPM_P2
2023/10/03 00:00:55;;;;;;;18.80;15.33;;;17.20;99.90;;;;;;4989265;28;20562;-61
2023/10/03 00:03:24;;;;;;;17.40;15.50;;;17.20;99.90;;;;;;5001587;28;20469;-60
2023/10/03 00:05:54;;;;;;;18.23;15.27;;;17.20;99.90;;;;;;4999217;28;20494;-60
2023/10/03 00:08:24;;;;;;;18.90;15.10;;;17.20;99.90;;;;;;4992359;28;20497;-60
2023/10/03 00:10:52;;;;;;;20.43;16.77;;;17.20;99.90;;;;;;4996909;28;20512;-60
2023/10/03 00:13:21;;;;;;;19.67;16.50;;;17.20;99.90;;;;;;4997432;28;20769;-61
2023/10/03 00:15:49;;;;;;;18.70;16.13;;;17.10;99.90;;;;;;4992796;28;20500;-60
2023/10/03 00:18:17;;;;;;;19.13;15.40;;;17.10;99.90;;;;;;4997744;28;20473;-61
2023/10/03 00:20:47;;;;;;;18.23;15.07;;;17.10;99.90;;;;;;4996886;28;20488;-60
2023/10/03 00:23:16;;;;;;;17.90;15.10;;;17.10;99.90;;;;;;5001211;28;20642;-60
2023/10/03 00:25:45;;;;;;;16.77;13.70;;;17.20;99.90;;;;;;4996631;28;20469;-60
2023/10/03 00:28:14;;;;;;;16.60;13.20;;;17.20;99.90;;;;;;4996277;28;21056;-61
2023/10/03 00:30:45;;;;;;;17.00;14.60;;;17.20;99.90;;;;;;4998494;28;20607;-60
2023/10/03 00:33:13;;;;;;;17.73;14.73;;;17.20;99.90;;;;;;5001982;28;20514;-61
2023/10/03 00:35:42;;;;;;;20.10;14.23;;;17.20;99.90;;;;;;5000054;28;20523;-61
2023/10/03 00:38:13;;;;;;;17.10;14.67;;;17.20;99.90;;;;;;4999160;28;20476;-60
2023/10/03 00:40:50;;;;;;;18.43;14.63;;;17.20;99.90;;;;;;5001422;28;20571;-61
2023/10/03 00:43:19;;;;;;;18.20;14.90;;;17.20;99.90;;;;;;5003603;28;20484;-61
2023/10/03 00:45:48;;;;;;;18.03;15.30;;;17.20;99.90;;;;;;4999289;28;20472;-60
2023/10/03 00:48:17;;;;;;;18.10;14.97;;;17.20;99.90;;;;;;4994659;28;20494;-61
2023/10/03 00:50:48;;;;;;;19.70;14.97;;;17.10;99.90;;;;;;4998837;28;20902;-60
2023/10/03 00:53:16;;;;;;;18.20;15.20;;;17.10;99.90;;;;;;4997411;28;20487;-60
2023/10/03 00:55:47;;;;;;;17.83;14.37;;;17.10;99.90;;;;;;4987954;28;20498;-60
2023/10/03 00:58:28;;;;;;;17.10;14.17;;;17.10;99.90;;;;;;4996886;28;21008;-60
2023/10/03 01:00:57;;;;;;;18.57;14.30;;;17.10;99.90;;;;;;4999372;28;20542;-60
2023/10/03 01:03:28;;;;;;;15.60;12.97;;;17.10;99.90;;;;;;4999829;28;20476;-60
2023/10/03 01:05:58;;;;;;;17.90;14.17;;;17.10;99.90;;;;;;5001977;28;20479;-60
2023/10/03 01:08:27;;;;;;;15.93;14.20;;;17.00;99.90;;;;;;4994441;28;20478;-60
2023/10/03 01:10:58;;;;;;;17.87;13.50;;;17.00;99.90;;;;;;4994275;28;21235;-60
2023/10/03 01:13:27;;;;;;;18.77;14.67;;;17.00;99.90;;;;;;4997558;28;20491;-59
2023/10/03 01:15:55;;;;;;;18.70;13.90;;;17.00;99.90;;;;;;4995947;28;20544;-60
2023/10/03 01:18:26;;;;;;;16.77;13.40;;;16.90;99.90;;;;;;4997952;28;20464;-60
2023/10/03 01:21:00;;;;;;;15.93;13.73;;;16.90;99.90;;;;;;4999790;28;21026;-60
2023/10/03 01:23:34;;;;;;;18.73;13.57;;;16.90;99.90;;;;;;4993956;28;20515;-60
2023/10/03 01:26:03;;;;;;;18.70;13.70;;;16.90;99.90;;;;;;4994056;28;20473;-60
2023/10/03 01:28:31;;;;;;;16.10;14.37;;;16.90;99.90;;;;;;4990749;28;20473;-59
2023/10/03 01:30:59;;;;;;;18.60;13.80;;;16.90;99.90;;;;;;4990636;28;20580;-60
2023/10/03 01:33:28;;;;;;;19.00;14.10;;;16.90;99.90;;;;;;4998304;28;20580;-59
2023/10/03 01:35:58;;;;;;;17.80;13.57;;;16.90;99.90;;;;;;4996997;28;20476;-60
2023/10/03 01:38:27;;;;;;;19.40;13.00;;;16.90;99.90;;;;;;4995382;28;21019;-60
2023/10/03 01:40:58;;;;;;;17.77;13.37;;;16.90;99.90;;;;;;4995743;28;21041;-59
2023/10/03 01:43:26;;;;;;;16.13;13.43;;;16.90;99.90;;;;;;4996032;28;20467;-60
2023/10/03 01:45:55;;;;;;;16.50;13.77;;;16.90;99.90;;;;;;4999746;28;20479;-60
2023/10/03 01:48:24;;;;;;;15.30;13.30;;;16.90;99.90;;;;;;4995097;28;21129;-60
2023/10/03 01:50:52;;;;;;;17.50;13.00;;;16.90;99.90;;;;;;4995133;28;20516;-59
2023/10/03 01:53:20;;;;;;;15.60;12.50;;;16.90;99.90;;;;;;4992510;28;20579;-60
2023/10/03 01:55:49;;;;;;;14.63;12.27;;;16.90;99.90;;;;;;4992855;28;20472;-59
2023/10/03 01:58:21;;;;;;;15.70;13.80;;;16.90;99.90;;;;;;4996286;28;20471;-60
2023/10/03 02:00:50;;;;;;;16.77;13.33;;;16.90;99.90;;;;;;4989332;28;20484;-60
2023/10/03 02:03:20;;;;;;;15.70;12.20;;;16.90;99.90;;;;;;4996595;28;20568;-59
2023/10/03 02:05:49;;;;;;;13.60;11.33;;;16.90;99.90;;;;;;4994849;28;21059;-61
2023/10/03 02:08:18;;;;;;;15.37;11.73;;;16.90;99.90;;;;;;4999571;28;20480;-60
2023/10/03 02:10:47;;;;;;;16.00;12.30;;;16.90;99.90;;;;;;4995395;28;21136;-60
2023/10/03 02:13:17;;;;;;;15.40;12.60;;;16.90;99.90;;;;;;4997758;28;20916;-59
2023/10/03 02:15:48;;;;;;;14.80;12.00;;;16.90;99.90;;;;;;4995516;28;20896;-59
2023/10/03 02:18:18;;;;;;;18.20;13.00;;;16.90;99.90;;;;;;4994768;28;20666;-61
2023/10/03 02:20:51;;;;;;;13.73;12.07;;;16.90;99.90;;;;;;4995352;28;20491;-58
2023/10/03 02:23:21;;;;;;;15.57;12.13;;;16.90;99.90;;;;;;4998746;28;20897;-59
2023/10/03 02:25:50;;;;;;;18.17;12.57;;;16.90;99.90;;;;;;4995043;28;20961;-60
2023/10/03 02:28:18;;;;;;;15.63;12.30;;;16.90;99.90;;;;;;4999057;28;20472;-60
2023/10/03 02:30:48;;;;;;;14.97;11.80;;;16.90;99.90;;;;;;4996693;28;20602;-59
2023/10/03 02:33:18;;;;;;;14.40;12.50;;;16.90;99.90;;;;;;4998913;28;20543;-59
2023/10/03 02:35:47;;;;;;;13.70;11.80;;;16.90;99.90;;;;;;4998343;28;20472;-59
2023/10/03 02:38:24;;;;;;;14.30;11.87;;;16.90;99.90;;;;;;4993930;28;21015;-58
2023/10/03 02:40:55;;;;;;;14.23;10.93;;;16.80;99.90;;;;;;4997510;28;20578;-60
2023/10/03 02:43:24;;;;;;;15.00;11.83;;;16.80;99.90;;;;;;4999109;28;20464;-60
2023/10/03 02:45:53;;;;;;;16.40;12.33;;;16.80;99.90;;;;;;4999665;28;20504;-59
2023/10/03 02:48:21;;;;;;;15.90;11.97;;;16.80;99.90;;;;;;4994947;28;20472;-60
2023/10/03 02:50:51;;;;;;;15.50;11.80;;;16.70;99.90;;;;;;4999365;28;20547;-61
2023/10/03 02:53:20;;;;;;;14.60;11.70;;;16.80;99.90;;;;;;5000248;28;20480;-59
2023/10/03 02:55:49;;;;;;;15.50;11.97;;;16.80;99.90;;;;;;4996065;28;20468;-60
2023/10/03 02:58:19;;;;;;;15.57;12.03;;;16.80;99.90;;;;;;4993657;28;20471;-59
2023/10/03 03:00:50;;;;;;;14.80;11.90;;;16.70;99.90;;;;;;4997829;28;20489;-61
2023/10/03 03:03:20;;;;;;;14.70;11.30;;;16.80;99.90;;;;;;5000112;28;20566;-60
2023/10/03 03:05:49;;;;;;;16.67;12.50;;;16.80;99.90;;;;;;4996103;28;20483;-60
2023/10/03 03:08:25;;;;;;;12.90;11.13;;;16.70;99.90;;;;;;4997628;28;20583;-60
2023/10/03 03:10:55;;;;;;;16.70;12.90;;;16.70;99.90;;;;;;4995909;28;20503;-57
2023/10/03 03:13:24;;;;;;;15.80;11.50;;;16.70;99.90;;;;;;4998459;28;20651;-59
2023/10/03 03:15:59;;;;;;;11.97;10.10;;;16.70;99.90;;;;;;4995170;28;20472;-60
2023/10/03 03:18:31;;;;;;;13.10;10.80;;;16.70;99.90;;;;;;4998161;28;20472;-61
2023/10/03 03:21:04;;;;;;;12.80;11.40;;;16.70;99.90;;;;;;4999297;28;20538;-59
2023/10/03 03:23:35;;;;;;;12.23;10.90;;;16.70;99.90;;;;;;4998142;28;20499;-58
2023/10/03 03:26:14;;;;;;;15.03;12.00;;;16.60;99.90;;;;;;4995092;28;20464;-60
2023/10/03 03:28:44;;;;;;;15.50;11.40;;;16.60;99.90;;;;;;5001975;28;20464;-58
2023/10/03 03:31:20;;;;;;;16.37;11.07;;;16.60;99.90;;;;;;5001710;28;20588;-61
2023/10/03 03:33:52;;;;;;;14.80;11.30;;;16.60;99.90;;;;;;5002015;28;20783;-58
2023/10/03 03:36:22;;;;;;;14.47;11.30;;;16.60;99.90;;;;;;5000123;28;20820;-60
2023/10/03 03:38:54;;;;;;;14.43;10.60;;;16.60;99.90;;;;;;5005602;28;20969;-61
2023/10/03 03:41:23;;;;;;;16.97;11.37;;;16.60;99.90;;;;;;5000152;28;20531;-58
2023/10/03 03:43:52;;;;;;;11.17;9.83;;;16.60;99.90;;;;;;5001103;28;20721;-59
2023/10/03 03:46:20;;;;;;;14.47;11.37;;;16.60;99.90;;;;;;5000652;28;20542;-61
2023/10/03 03:48:48;;;;;;;13.60;9.63;;;16.60;99.90;;;;;;5002047;28;20460;-60
2023/10/03 03:51:17;;;;;;;12.57;10.20;;;16.60;99.90;;;;;;5003699;28;20492;-59
2023/10/03 03:53:45;;;;;;;12.13;10.57;;;16.50;99.90;;;;;;4999522;28;20567;-59
2023/10/03 03:56:13;;;;;;;11.70;9.83;;;16.50;99.90;;;;;;4997378;28;20555;-60
2023/10/03 03:58:44;;;;;;;15.53;10.47;;;16.50;99.90;;;;;;4997366;28;20888;-59
2023/10/03 04:01:14;;;;;;;12.70;9.70;;;16.50;99.90;;;;;;4995305;28;20603;-61
2023/10/03 04:03:43;;;;;;;12.17;10.17;;;16.50;99.90;;;;;;4995934;28;20794;-61
2023/10/03 04:06:11;;;;;;;13.10;9.70;;;16.50;99.90;;;;;;4998988;28;20752;-61
2023/10/03 04:08:40;;;;;;;13.60;10.17;;;16.50;99.90;;;;;;4996010;28;20481;-61
2023/10/03 04:11:27;;;;;;;12.53;10.73;;;16.40;99.90;;;;;;4993143;28;20506;-61
2023/10/03 04:13:55;;;;;;;10.60;8.93;;;16.40;99.90;;;;;;4996718;28;21053;-61
2023/10/03 04:16:27;;;;;;;12.40;9.40;;;16.50;99.90;;;;;;5000861;28;20477;-59
2023/10/03 04:18:55;;;;;;;12.60;9.80;;;16.40;99.90;;;;;;4997788;28;20472;-60
2023/10/03 04:21:26;;;;;;;13.87;9.90;;;16.40;99.90;;;;;;4998729;28;20500;-60
2023/10/03 04:23:56;;;;;;;13.47;10.20;;;16.40;99.90;;;;;;4995426;28;20567;-60
2023/10/03 04:26:25;;;;;;;11.60;9.53;;;16.30;99.90;;;;;;4998657;28;20487;-61
2023/10/03 04:28:53;;;;;;;12.30;10.17;;;16.40;99.90;;;;;;4994188;28;20530;-61
2023/10/03 04:31:21;;;;;;;14.10;10.40;;;16.40;99.90;;;;;;4992953;28;21003;-60
2023/10/03 04:33:49;;;;;;;12.13;9.20;;;16.30;99.90;;;;;;4996648;28;20469;-60
2023/10/03 04:36:17;;;;;;;11.30;9.90;;;16.30;99.90;;;;;;4998005;28;20952;-61
2023/10/03 04:38:46;;;;;;;12.60;9.43;;;16.40;99.90;;;;;;4991505;28;21162;-58
2023/10/03 04:41:17;;;;;;;13.73;9.37;;;16.40;99.90;;;;;;4995269;28;20519;-61
2023/10/03 04:43:45;;;;;;;12.23;8.83;;;16.30;99.90;;;;;;4998916;28;20540;-60
2023/10/03 04:46:13;;;;;;;12.50;9.23;;;16.30;99.90;;;;;;4995288;28;20477;-60
2023/10/03 04:48:42;;;;;;;12.67;10.10;;;16.30;99.90;;;;;;4998756;28;20468;-61
2023/10/03 04:51:14;;;;;;;13.13;9.43;;;16.30;99.90;;;;;;4997549;28;20496;-59
2023/10/03 04:53:42;;;;;;;11.17;9.77;;;16.30;99.90;;;;;;4996789;28;21009;-59
2023/10/03 04:56:11;;;;;;;11.33;9.27;;;16.30;99.90;;;;;;4994937;28;20490;-60
2023/10/03 04:58:41;;;;;;;18.70;10.80;;;16.30;99.90;;;;;;4997545;28;20957;-59
2023/10/03 05:01:09;;;;;;;12.30;9.30;;;16.30;99.90;;;;;;4993869;28;20649;-59
2023/10/03 05:03:38;;;;;;;12.17;9.70;;;16.30;99.90;;;;;;4996931;28;20938;-62
2023/10/03 05:06:09;;;;;;;12.70;9.70;;;16.30;99.90;;;;;;4997027;28;20860;-60
2023/10/03 05:08:38;;;;;;;11.43;9.40;;;16.30;99.90;;;;;;4989214;28;20554;-59
2023/10/03 05:11:07;;;;;;;12.80;10.23;;;16.30;99.90;;;;;;4993867;28;20495;-59
2023/10/03 05:13:36;;;;;;;12.90;10.03;;;16.30;99.90;;;;;;4998935;28;20517;-61
2023/10/03 05:16:06;;;;;;;12.40;9.80;;;16.30;99.90;;;;;;4994562;28;20529;-60
2023/10/03 05:18:35;;;;;;;13.07;9.80;;;16.30;99.90;;;;;;5001062;28;21002;-60
2023/10/03 05:21:03;;;;;;;13.50;10.40;;;16.30;99.90;;;;;;4996864;28;20488;-61
2023/10/03 05:23:32;;;;;;;10.87;9.63;;;16.40;99.90;;;;;;4990633;28;20476;-61
2023/10/03 05:26:02;;;;;;;11.43;9.60;;;16.40;99.90;;;;;;4996029;28;20468;-59
2023/10/03 05:28:31;;;;;;;11.80;9.37;;;16.40;99.90;;;;;;4995495;28;20867;-60
2023/10/03 05:31:00;;;;;;;11.17;8.97;;;16.40;99.90;;;;;;4993549;28;20491;-59
2023/10/03 05:33:29;;;;;;;13.83;9.87;;;16.40;99.90;;;;;;4996893;28;20503;-59
2023/10/03 05:35:57;;;;;;;12.13;8.80;;;16.30;99.90;;;;;;4996535;28;20469;-59
2023/10/03 05:38:25;;;;;;;13.83;9.90;;;16.30;99.90;;;;;;4995218;28;20547;-60
2023/10/03 05:40:53;;;;;;;12.83;8.83;;;16.40;99.90;;;;;;4992874;28;20497;-60
2023/10/03 05:43:21;;;;;;;12.87;8.57;;;16.40;99.90;;;;;;4991201;28;20472;-59
2023/10/03 05:45:51;;;;;;;12.93;9.40;;;16.40;99.90;;;;;;4998733;28;20531;-61
2023/10/03 05:48:22;;;;;;;10.80;8.63;;;16.40;99.90;;;;;;4995406;28;20472;-59
2023/10/03 05:50:52;;;;;;;13.43;9.57;;;16.40;99.90;;;;;;4997378;28;20976;-60
2023/10/03 05:53:20;;;;;;;12.17;9.03;;;16.40;99.90;;;;;;5000193;28;20920;-61
2023/10/03 05:55:48;;;;;;;11.57;9.10;;;16.40;99.90;;;;;;4994963;28;20486;-59
2023/10/03 05:58:16;;;;;;;15.77;10.47;;;16.40;99.90;;;;;;4995095;28;20826;-59
2023/10/03 06:00:44;;;;;;;12.90;9.50;;;16.40;99.90;;;;;;4997514;28;20492;-61
2023/10/03 06:03:12;;;;;;;13.43;9.90;;;16.40;99.90;;;;;;4992941;28;20547;-58
2023/10/03 06:05:41;;;;;;;13.50;9.70;;;16.40;99.90;;;;;;4992141;28;20491;-58
2023/10/03 06:08:12;;;;;;;18.10;9.67;;;16.50;99.90;;;;;;5000500;28;20476;-61
2023/10/03 06:10:40;;;;;;;13.30;10.03;;;16.50;99.90;;;;;;4994781;28;20570;-62
2023/10/03 06:13:09;;;;;;;14.40;9.60;;;16.50;99.90;;;;;;4999794;28;20587;-59
2023/10/03 06:15:41;;;;;;;14.70;9.70;;;16.60;99.90;;;;;;4995052;28;20986;-59
2023/10/03 06:18:09;;;;;;;14.30;9.67;;;16.60;99.90;;;;;;4995683;28;20516;-60
2023/10/03 06:20:38;;;;;;;11.43;9.47;;;16.70;99.90;;;;;;4996850;28;20512;-60
2023/10/03 06:23:06;;;;;;;13.30;9.60;;;16.70;99.90;;;;;;5002868;28;21048;-61
2023/10/03 06:25:35;;;;;;;12.17;10.17;;;16.80;99.90;;;;;;5003196;28;20482;-58
2023/10/03 06:28:04;;;;;;;13.20;9.50;;;16.80;99.90;;;;;;4990206;28;20921;-58
2023/10/03 06:30:32;;;;;;;13.10;9.60;;;16.80;99.90;;;;;;4973504;28;20496;-59
2023/10/03 06:33:01;;;;;;;14.50;9.80;;;16.90;99.90;;;;;;4994925;28;21112;-62
2023/10/03 06:35:29;;;;;;;13.30;9.43;;;16.90;99.90;;;;;;4996918;28;21112;-59
2023/10/03 06:37:58;;;;;;;12.30;9.43;;;17.00;99.90;;;;;;4998574;28;20582;-60
2023/10/03 06:40:27;;;;;;;13.77;9.30;;;17.00;99.90;;;;;;4997843;28;20464;-62
2023/10/03 06:42:56;;;;;;;13.83;9.47;;;17.10;99.90;;;;;;4983856;28;20474;-61
2023/10/03 06:45:24;;;;;;;12.47;9.43;;;17.20;99.90;;;;;;4983754;28;20990;-59
2023/10/03 06:47:54;;;;;;;14.47;9.80;;;17.30;99.90;;;;;;4976536;28;20533;-59
2023/10/03 06:50:24;;;;;;;15.67;10.13;;;17.40;99.90;;;;;;4985676;28;20471;-60
2023/10/03 06:52:52;;;;;;;13.40;9.20;;;17.50;99.90;;;;;;4988050;28;20503;-61
2023/10/03 06:55:20;;;;;;;13.10;9.77;;;17.60;99.90;;;;;;4977627;28;21520;-59
2023/10/03 06:57:48;;;;;;;13.30;9.60;;;17.80;99.90;;;;;;4989136;28;20560;-59
2023/10/03 07:00:22;;;;;;;17.80;10.60;;;17.90;99.90;;;;;;4983129;28;20541;-59
2023/10/03 07:02:50;;;;;;;12.90;9.97;;;18.00;99.90;;;;;;4984457;28;20492;-60
2023/10/03 07:05:18;;;;;;;14.23;9.70;;;18.10;99.90;;;;;;4992351;28;20559;-59
2023/10/03 07:07:47;;;;;;;15.30;10.60;;;18.30;99.90;;;;;;4985251;28;21009;-58
2023/10/03 07:10:15;;;;;;;16.80;11.00;;;18.40;99.90;;;;;;4982011;28;20463;-59
2023/10/03 07:12:43;;;;;;;16.40;10.60;;;18.60;99.90;;;;;;4980801;28;20592;-58
2023/10/03 07:15:12;;;;;;;14.43;9.70;;;18.60;99.90;;;;;;4971853;28;20860;-59
2023/10/03 07:17:41;;;;;;;13.43;9.70;;;18.70;99.90;;;;;;4977912;28;20472;-60
2023/10/03 07:20:12;;;;;;;13.90;11.00;;;18.80;99.90;;;;;;4976091;28;20500;-61
2023/10/03 07:22:42;;;;;;;16.67;9.97;;;19.00;99.90;;;;;;4972969;28;20490;-62
2023/10/03 07:25:11;;;;;;;16.83;11.50;;;19.00;99.90;;;;;;4982181;28;20468;-61
2023/10/03 07:27:41;;;;;;;12.40;9.50;;;19.10;99.90;;;;;;4977081;28;20590;-62
2023/10/03 07:30:10;;;;;;;16.63;10.33;;;19.20;99.90;;;;;;4968291;28;21735;-60
2023/10/03 07:32:38;;;;;;;14.50;10.60;;;19.20;99.90;;;;;;4982271;28;20545;-62
2023/10/03 07:35:11;;;;;;;13.13;9.53;;;19.30;99.90;;;;;;4981858;28;20597;-60
2023/10/03 07:37:40;;;;;;;17.67;9.80;;;19.40;99.90;;;;;;4976575;28;20477;-62
2023/10/03 07:40:09;;;;;;;14.60;9.57;;;19.40;99.90;;;;;;4983381;28;20987;-61
2023/10/03 07:42:38;;;;;;;12.20;9.67;;;19.40;99.90;;;;;;4987072;28;20508;-61
2023/10/03 07:45:08;;;;;;;12.20;9.17;;;19.50;99.90;;;;;;4974179;28;20951;-63
2023/10/03 07:47:37;;;;;;;14.30;10.00;;;19.50;99.90;;;;;;4987562;28;20476;-63
2023/10/03 07:50:06;;;;;;;15.87;10.40;;;19.50;99.90;;;;;;4968040;28;20506;-61
2023/10/03 07:52:35;;;;;;;13.93;10.03;;;19.50;99.90;;;;;;4972627;28;20495;-61
2023/10/03 07:55:05;;;;;;;14.57;9.60;;;19.60;99.90;;;;;;4972625;28;20965;-61
2023/10/03 07:57:33;;;;;;;15.10;9.93;;;19.60;99.90;;;;;;4969323;28;20491;-60
2023/10/03 08:00:05;;;;;;;16.27;10.53;;;19.70;99.90;;;;;;4965199;28;20514;-60
2023/10/03 08:02:33;;;;;;;13.30;10.00;;;19.70;99.90;;;;;;4973081;28;20503;-62
2023/10/03 08:05:01;;;;;;;15.60;10.33;;;19.70;99.90;;;;;;4965357;28;20488;-63
2023/10/03 08:07:31;;;;;;;15.27;10.13;;;19.70;99.90;;;;;;4975943;28;20489;-60
2023/10/03 08:10:03;;;;;;;14.50;10.33;;;19.70;99.90;;;;;;4971096;28;20504;-61
2023/10/03 08:12:37;;;;;;;14.50;10.50;;;19.70;99.90;;;;;;4986151;28;20853;-61
2023/10/03 08:15:16;;;;;;;14.57;10.73;;;19.70;99.90;;;;;;4984336;28;20500;-60
2023/10/03 08:17:48;;;;;;;15.73;11.00;;;19.70;99.90;;;;;;4980700;28;20556;-61
2023/10/03 08:20:18;;;;;;;13.53;10.30;;;19.70;99.90;;;;;;4985529;28;20876;-60
2023/10/03 08:22:50;;;;;;;15.17;10.70;;;19.70;99.90;;;;;;4980630;28;20556;-61
2023/10/03 08:25:22;;;;;;;13.47;9.90;;;19.70;99.90;;;;;;4986512;28;20472;-60
2023/10/03 08:27:50;;;;;;;19.00;10.73;;;19.80;99.90;;;;;;4981606;28;20468;-62
2023/10/03 08:30:29;;;;;;;14.93;10.90;;;19.80;99.90;;;;;;4980709;28;20496;-60
2023/10/03 08:33:00;;;;;;;17.00;10.50;;;19.90;99.90;;;;;;4968057;28;20477;-62
2023/10/03 08:35:38;;;;;;;13.87;9.90;;;20.00;99.90;;;;;;4974635;28;20492;-61
2023/10/03 08:38:08;;;;;;;14.97;10.13;;;20.00;99.90;;;;;;4973499;28;21152;-62
2023/10/03 08:40:44;;;;;;;16.23;10.40;;;20.10;99.90;;;;;;4977637;28;20650;-64
2023/10/03 08:43:13;;;;;;;12.03;9.40;;;20.10;99.90;;;;;;4973921;28;20501;-63
2023/10/03 08:45:43;;;;;;;14.63;10.10;;;20.20;99.90;;;;;;4977368;28;20594;-62
2023/10/03 08:48:11;;;;;;;16.67;10.80;;;20.30;99.90;;;;;;4970919;28;21269;-68
2023/10/03 08:50:46;;;;;;;16.13;10.00;;;20.40;99.90;;;;;;4974887;28;21007;-62
2023/10/03 08:53:16;;;;;;;11.10;9.10;;;20.50;99.90;;;;;;5026666;22;20533;-64
2023/10/03 08:55:48;;;;;;;14.43;9.63;;;20.60;99.90;;;;;;5017445;28;20494;-63
2023/10/03 08:58:18;;;;;;;13.60;9.37;;;20.70;99.90;;;;;;5015564;28;20972;-64
2023/10/03 09:00:49;;;;;;;15.00;8.27;;;20.80;99.90;;;;;;5011454;28;20463;-63
2023/10/03 09:03:18;;;;;;;12.93;9.53;;;20.90;99.90;;;;;;5015151;28;20491;-64
2023/10/03 09:05:48;;;;;;;10.30;8.30;;;21.00;99.90;;;;;;5020069;28;20521;-64
2023/10/03 09:08:17;;;;;;;11.37;9.57;;;21.00;99.90;;;;;;5000562;28;20554;-63
2023/10/03 09:10:53;;;;;;;12.17;8.60;;;21.00;99.90;;;;;;5010645;28;20482;-63
2023/10/03 09:13:27;;;;;;;12.40;8.33;;;21.00;99.90;;;;;;5009465;28;20498;-64
2023/10/03 09:16:08;;;;;;;10.40;7.50;;;21.00;99.90;;;;;;4999468;28;21024;-64
2023/10/03 09:18:41;;;;;;;11.47;8.23;;;20.90;99.90;;;;;;5010024;28;20475;-65
2023/10/03 09:21:15;;;;;;;10.10;7.60;;;20.90;99.90;;;;;;5007310;28;20478;-64
2023/10/03 09:24:12;;;;;;;11.33;7.63;;;20.90;99.90;;;;;;4991271;28;20513;-65
2023/10/03 09:26:47;;;;;;;10.83;7.77;;;20.90;99.90;;;;;;5002988;28;20661;-63
2023/10/03 09:29:26;;;;;;;9.60;7.40;;;20.90;99.90;;;;;;5007181;28;20478;-63
2023/10/03 09:31:57;;;;;;;10.43;7.43;;;20.90;99.90;;;;;;5004324;28;20474;-62
2023/10/03 09:34:30;;;;;;;11.00;7.23;;;21.00;99.90;;;;;;5010266;28;20471;-63
2023/10/03 09:37:02;;;;;;;10.30;7.17;;;21.10;99.90;;;;;;4990790;28;20521;-63
2023/10/03 09:39:30;;;;;;;9.13;6.40;;;21.10;99.90;;;;;;4996836;28;20468;-64
2023/10/03 09:42:03;;;;;;;11.53;8.23;;;21.10;99.90;;;;;;4986345;28;20598;-63
2023/10/03 09:44:32;;;;;;;10.20;8.07;;;21.10;99.90;;;;;;4981421;28;20495;-64
2023/10/03 09:47:06;;;;;;;10.37;8.10;;;21.20;99.90;;;;;;4985367;28;20508;-64
2023/10/03 09:49:38;;;;;;;10.20;8.00;;;21.30;99.90;;;;;;4953927;28;20493;-62
2023/10/03 09:52:17;;;;;;;9.70;8.20;;;21.40;99.90;;;;;;4963194;28;21529;-62
2023/10/03 09:54:45;;;;;;;9.87;7.60;;;21.40;99.90;;;;;;4954413;28;21067;-65
2023/10/03 09:57:18;;;;;;;10.47;8.30;;;21.50;99.90;;;;;;4974811;28;21129;-65
2023/10/03 09:59:46;;;;;;;9.93;7.97;;;21.50;99.90;;;;;;4967587;28;20482;-65
2023/10/03 10:02:15;;;;;;;9.93;7.50;;;21.50;99.90;;;;;;4984402;28;20595;-66
2023/10/03 10:04:48;;;;;;;10.53;7.70;;;21.40;99.90;;;;;;4979769;28;20603;-65
2023/10/03 10:07:29;;;;;;;10.33;7.70;;;21.30;99.90;;;;;;4975389;28;20973;-65
2023/10/03 10:10:07;;;;;;;9.50;7.83;;;21.20;99.90;;;;;;4962624;28;20492;-65
2023/10/03 10:12:43;;;;;;;8.77;7.33;;;21.10;99.90;;;;;;4981034;28;20492;-65
2023/10/03 10:15:26;;;;;;;10.27;7.73;;;21.10;99.90;;;;;;4966274;28;21122;-65
2023/10/03 10:17:56;;;;;;;10.63;7.20;;;21.20;99.90;;;;;;4974744;28;20481;-65
2023/10/03 10:20:37;;;;;;;10.03;7.57;;;21.30;99.90;;;;;;4979221;28;20896;-65
2023/10/03 10:23:17;;;;;;;9.40;7.17;;;21.30;99.90;;;;;;4974741;28;20487;-65
2023/10/03 10:25:51;;;;;;;8.80;5.87;;;21.30;99.90;;;;;;4975085;28;21211;-65
2023/10/03 10:28:24;;;;;;;8.60;5.90;;;21.20;99.90;;;;;;4974679;28;21102;-65
2023/10/03 10:31:25;;;;;;;7.93;6.70;;;21.10;99.90;;;;;;4970604;28;20822;-65
2023/10/03 10:34:37;;;;;;;6.53;5.67;;;21.10;99.90;;;;;;4975016;28;20613;-65
2023/10/03 10:37:09;;;;;;;7.17;5.60;;;21.00;99.90;;;;;;4967752;28;20519;-63
2023/10/03 10:40:11;;;;;;;7.10;5.90;;;20.90;99.90;;;;;;4973980;28;20480;-63
2023/10/03 10:43:04;;;;;;;10.23;5.57;;;20.80;99.90;;;;;;4975884;28;20558;-65
2023/10/03 10:45:42;;;;;;;8.23;5.50;;;20.80;99.90;;;;;;4972942;28;20488;-62
2023/10/03 10:48:11;;;;;;;7.47;5.10;;;20.70;99.90;;;;;;4966700;28;20480;-62
2023/10/03 10:51:09;;;;;;;7.90;5.40;;;20.60;99.90;;;;;;4968827;28;20480;-63
2023/10/03 10:53:40;;;;;;;7.90;6.30;;;20.50;99.90;;;;;;4980426;28;20910;-64
2023/10/03 10:56:09;;;;;;;7.83;6.27;;;20.50;99.90;;;;;;4978679;28;20481;-65
2023/10/03 10:58:50;;;;;;;10.83;6.87;;;20.40;99.90;;;;;;4972362;28;20568;-65
2023/10/03 11:01:20;;;;;;;7.40;6.20;;;20.20;99.90;;;;;;4976350;28;20616;-65
2023/10/03 11:03:49;;;;;;;8.10;6.83;;;20.10;99.90;;;;;;4985642;28;20492;-65
2023/10/03 11:06:19;;;;;;;7.43;6.67;;;20.00;99.90;;;;;;4984580;28;20926;-63
2023/10/03 11:08:48;;;;;;;6.30;5.00;;;19.80;99.90;;;;;;4993720;28;21111;-61
2023/10/03 11:11:17;;;;;;;5.73;4.20;;;19.70;99.90;;;;;;4991294;28;20495;-63
2023/10/03 11:13:46;;;;;;;4.57;4.13;;;19.50;99.90;;;;;;4996814;28;20502;-62
2023/10/03 11:16:26;;;;;;;4.27;3.97;;;19.40;99.90;;;;;;4992841;28;20487;-63
2023/10/03 11:18:56;;;;;;;4.40;4.00;;;19.20;99.90;;;;;;4994245;28;20928;-62
2023/10/03 11:21:25;;;;;;;5.27;4.30;;;19.10;99.90;;;;;;4990588;28;20473;-63
2023/10/03 11:24:18;;;;;;;4.10;3.70;;;19.00;99.90;;;;;;4995948;28;20583;-63
2023/10/03 11:26:47;;;;;;;5.77;4.10;;;19.00;99.90;;;;;;4990678;28;21211;-64
2023/10/03 11:29:17;;;;;;;5.17;4.20;;;19.00;99.90;;;;;;4992935;28;20965;-63
2023/10/03 11:31:47;;;;;;;4.43;3.47;;;19.00;99.90;;;;;;4989622;28;20904;-63
2023/10/03 11:34:31;;;;;;;5.00;3.13;;;19.00;99.90;;;;;;4997935;28;20520;-63
2023/10/03 11:37:00;;;;;;;4.07;3.13;;;19.00;99.90;;;;;;4995008;28;20471;-63
2023/10/03 11:39:28;;;;;;;6.00;3.43;;;19.00;99.90;;;;;;4992097;28;20483;-64
2023/10/03 11:42:00;;;;;;;4.40;2.30;;;19.00;99.90;;;;;;4996861;28;20969;-63
2023/10/03 11:44:29;;;;;;;4.97;2.50;;;18.90;99.90;;;;;;4993702;28;20924;-64
2023/10/03 11:46:58;;;;;;;4.40;2.47;;;18.90;99.90;;;;;;4990267;28;20681;-63
2023/10/03 11:49:27;;;;;;;6.73;2.23;;;18.80;99.90;;;;;;4994142;28;21112;-63
2023/10/03 11:51:56;;;;;;;4.93;1.50;;;18.70;99.90;;;;;;4990718;28;20989;-63
2023/10/03 11:54:24;;;;;;;5.87;1.30;;;18.60;99.90;;;;;;4992592;28;20488;-63
2023/10/03 11:56:52;;;;;;;5.27;1.60;;;18.60;99.90;;;;;;4994921;28;20539;-63
2023/10/03 11:59:20;;;;;;;3.37;1.30;;;18.60;99.90;;;;;;4996719;28;20473;-62
2023/10/03 12:01:50;;;;;;;5.60;1.47;;;18.50;99.90;;;;;;4994554;28;21082;-63
2023/10/03 12:04:19;;;;;;;2.23;1.00;;;18.50;99.90;;;;;;4994511;28;20574;-64
2023/10/03 12:06:47;;;;;;;4.63;1.40;;;18.50;99.90;;;;;;4994433;28;20503;-63
2023/10/03 12:09:17;;;;;;;8.30;1.37;;;18.40;99.90;;;;;;4997697;28;20540;-65
2023/10/03 12:11:45;;;;;;;2.27;1.00;;;18.40;99.90;;;;;;4993589;28;20468;-65
2023/10/03 12:14:13;;;;;;;2.80;1.00;;;18.30;99.90;;;;;;4994219;28;20512;-64
2023/10/03 12:16:42;;;;;;;2.40;0.80;;;18.20;99.90;;;;;;4982027;28;20587;-65
2023/10/03 12:19:10;;;;;;;1.70;0.60;;;18.10;99.90;;;;;;4980973;28;20571;-65
2023/10/03 12:21:40;;;;;;;1.60;0.90;;;18.00;99.90;;;;;;4974322;28;20576;-65
2023/10/03 12:24:08;;;;;;;1.47;0.70;;;18.00;99.90;;;;;;4979088;28;20488;-63
2023/10/03 12:26:36;;;;;;;1.87;0.90;;;17.90;99.90;;;;;;4985690;28;21010;-65
2023/10/03 12:29:04;;;;;;;1.10;0.70;;;17.80;99.90;;;;;;4987187;28;20480;-65
2023/10/03 12:31:33;;;;;;;1.60;0.67;;;17.70;99.90;;;;;;4984553;28;20510;-64
2023/10/03 12:34:02;;;;;;;3.70;0.73;;;17.60;99.90;;;;;;4980950;28;20489;-64
2023/10/03 12:36:32;;;;;;;1.37;0.70;;;17.40;99.90;;;;;;4985787;28;20564;-64
2023/10/03 12:39:10;;;;;;;3.27;1.10;;;17.30;99.90;;;;;;4975844;28;20476;-65
2023/10/03 12:41:39;;;;;;;3.10;0.87;;;17.20;99.90;;;;;;4974015;28;20515;-65
2023/10/03 12:44:07;;;;;;;1.27;0.80;;;17.20;99.90;;;;;;4983989;28;20495;-65
2023/10/03 12:46:36;;;;;;;2.70;1.10;;;17.10;99.90;;;;;;4980365;28;21069;-66
2023/10/03 12:49:04;;;;;;;2.03;0.90;;;17.10;99.90;;;;;;4988823;28;20464;-65
2023/10/03 12:51:32;;;;;;;2.67;0.90;;;17.10;99.90;;;;;;4989395;28;20468;-66
2023/10/03 12:54:04;;;;;;;2.30;1.00;;;17.20;99.90;;;;;;4986579;28;20587;-66